Crane Naval Weapons Support, Indiana
Current Conditions -  °F | °C
As of 7:35 AM on Friday 28 Nov 2014 (Local Time) from KDCY Reporting Station
Broken Clouds Broken Clouds  
Wind Chill: 17°   Ceiling: 7500
Heat Index: 26°   Visibility: 10mi
Dew Point: 22°   Wind: 8mph
Humidity: 84%   Direction: 170°S
Pressure: 30.38"   Gusts: NA
Location:  38.8381°N, 86.8142°W
Report Text: KDCY 281335Z AUTO 17007KT 10SM BKN075 M03/M06 A3038 RMK AO2 T10341058
Loading
Personal Weather Stations






























Interactive Weather Map New forecast layout! Learn more

10-Day Weather Forecast

Advertisements
Track Severe Weather on mobile